Time;durP1;ratioP1;P1;durP2;ratioP2;P2;SDS_P1;SDS_P2;PMS_P1;PMS_P2;Temp;Humidity;BMP_temperature;BMP_pressure;BME280_temperature;BME280_humidity;BME280_pressure;Samples;Min_cycle;Max_cycle;Signal;HPM_P1;HPM_P2
2022/12/29 00:01:31;;;;;;;1.70;1.40;;;21.10;71.10;;;;;;5025874;28;20207;-43
2022/12/29 00:03:58;;;;;;;1.63;1.52;;;21.10;71.10;;;;;;5024620;28;20201;-43
2022/12/29 00:06:25;;;;;;;2.47;2.03;;;21.00;71.00;;;;;;5034997;28;20679;-43
2022/12/29 00:08:53;;;;;;;2.47;2.13;;;21.00;71.00;;;;;;5036155;28;20197;-46
2022/12/29 00:11:22;;;;;;;1.58;1.48;;;21.00;71.00;;;;;;5023186;28;20224;-45
2022/12/29 00:16:35;;;;;;;2.25;2.05;;;20.90;71.20;;;;;;5030232;28;20208;-45
2022/12/29 00:19:03;;;;;;;2.72;2.47;;;20.90;71.30;;;;;;5027155;28;20649;-45
2022/12/29 00:35:28;;;;;;;3.90;3.60;;;21.00;71.00;;;;;;5022770;28;20568;-44
2022/12/29 00:46:11;;;;;;;2.67;1.30;;;20.90;71.20;;;;;;5017563;28;20211;-44
2022/12/29 00:51:23;;;;;;;1.95;1.75;;;20.80;71.20;;;;;;5015487;28;20232;-41
2022/12/29 00:53:50;;;;;;;2.30;1.85;;;20.80;71.30;;;;;;5028299;28;20196;-42
2022/12/29 00:56:18;;;;;;;2.40;1.80;;;20.80;71.50;;;;;;5025111;28;20212;-43
2022/12/29 00:58:44;;;;;;;1.90;1.80;;;20.70;71.40;;;;;;5024644;28;20203;-44
2022/12/29 01:01:11;;;;;;;1.95;1.75;;;20.70;71.40;;;;;;5024859;28;20203;-42
2022/12/29 01:03:39;;;;;;;1.92;1.50;;;20.80;71.50;;;;;;5027507;28;20200;-47
2022/12/29 01:06:08;;;;;;;1.35;1.25;;;20.80;71.20;;;;;;5022088;28;20197;-46
2022/12/29 01:08:35;;;;;;;1.13;1.00;;;20.90;71.20;;;;;;5027246;28;20202;-48
2022/12/29 01:11:03;;;;;;;1.30;1.20;;;20.80;71.00;;;;;;5025912;28;20192;-44
2022/12/29 01:13:31;;;;;;;1.42;0.90;;;20.80;71.10;;;;;;5026706;28;20221;-43
2022/12/29 01:15:59;;;;;;;1.98;1.25;;;20.80;71.10;;;;;;5027401;28;20583;-43
2022/12/29 01:18:26;;;;;;;2.10;1.40;;;20.80;71.20;;;;;;5030817;28;20201;-43
2022/12/29 01:20:59;;;;;;;1.33;1.00;;;20.80;71.20;;;;;;5025791;28;20215;-46
2022/12/29 01:23:26;;;;;;;1.70;1.42;;;20.70;71.20;;;;;;5036253;28;20683;-45
2022/12/29 01:25:53;;;;;;;1.58;0.90;;;20.80;71.40;;;;;;5033203;28;20199;-45
2022/12/29 01:28:20;;;;;;;1.92;1.70;;;20.70;71.30;;;;;;5021486;28;20196;-45
2022/12/29 01:30:48;;;;;;;3.92;2.45;;;20.70;71.40;;;;;;5025620;28;20214;-43
2022/12/29 01:33:14;;;;;;;1.50;1.30;;;20.70;71.40;;;;;;5027745;28;20220;-47
2022/12/29 01:35:41;;;;;;;2.00;1.50;;;20.70;71.50;;;;;;5034311;28;20549;-46
2022/12/29 01:38:08;;;;;;;1.67;1.48;;;20.70;71.50;;;;;;5033116;28;20212;-45
2022/12/29 01:40:43;;;;;;;2.35;1.85;;;20.60;71.40;;;;;;5027667;28;20219;-47
2022/12/29 01:43:13;;;;;;;1.95;1.73;;;20.60;71.50;;;;;;5029305;28;20196;-46
2022/12/29 01:45:44;;;;;;;1.63;1.52;;;20.60;71.50;;;;;;5029654;28;20273;-42
2022/12/29 01:48:14;;;;;;;2.20;2.00;;;20.70;71.50;;;;;;5031693;28;20205;-42
2022/12/29 01:50:46;;;;;;;5.60;5.20;;;20.70;72.10;;;;;;5021757;28;20565;-45
2022/12/29 01:53:18;;;;;;;1.42;1.00;;;20.70;71.10;;;;;;5024391;28;20579;-49
2022/12/29 01:55:49;;;;;;;1.13;1.02;;;20.70;71.10;;;;;;5031028;28;20204;-47
2022/12/29 01:58:18;;;;;;;1.20;1.10;;;20.70;71.10;;;;;;5029071;28;20657;-45
2022/12/29 02:00:45;;;;;;;1.30;1.20;;;20.70;71.20;;;;;;5034346;28;20203;-44
2022/12/29 02:03:13;;;;;;;1.60;1.10;;;20.70;71.40;;;;;;5032521;28;20208;-44
2022/12/29 02:05:45;;;;;;;1.10;0.90;;;20.70;71.40;;;;;;5027810;28;20191;-42
2022/12/29 02:08:13;;;;;;;1.58;1.10;;;20.70;71.40;;;;;;5027131;28;20816;-44
2022/12/29 02:10:41;;;;;;;1.10;1.00;;;20.60;71.30;;;;;;5033535;28;20192;-44
2022/12/29 02:13:08;;;;;;;1.88;1.30;;;20.60;71.40;;;;;;5030459;28;20224;-48
2022/12/29 02:15:42;;;;;;;1.67;1.10;;;20.60;71.40;;;;;;5032583;28;20188;-46
2022/12/29 02:18:26;;;;;;;1.33;1.00;;;20.60;71.40;;;;;;5034605;28;20710;-44
2022/12/29 02:21:26;;;;;;;1.55;1.30;;;20.60;71.40;;;;;;5020188;28;20220;-45
2022/12/29 02:24:22;;;;;;;1.25;1.00;;;20.50;71.40;;;;;;4992440;28;20196;-49
2022/12/29 02:27:13;;;;;;;1.10;0.80;;;20.50;71.50;;;;;;5033737;28;20212;-45
2022/12/29 02:30:16;;;;;;;1.30;0.95;;;20.50;71.60;;;;;;5018798;28;20197;-45
2022/12/29 02:32:53;;;;;;;1.63;1.10;;;20.40;71.70;;;;;;5031109;28;20230;-44
2022/12/29 02:35:30;;;;;;;1.20;1.10;;;20.30;71.50;;;;;;5029030;28;20200;-44
2022/12/29 02:38:07;;;;;;;0.98;0.88;;;20.50;71.80;;;;;;5031771;28;20659;-44
2022/12/29 02:40:41;;;;;;;1.02;0.90;;;20.50;71.50;;;;;;5027075;28;20199;-41
2022/12/29 02:43:17;;;;;;;1.20;1.00;;;20.60;71.40;;;;;;5036972;28;20203;-47
2022/12/29 02:45:50;;;;;;;1.20;1.10;;;20.60;71.20;;;;;;5025471;28;20203;-45
2022/12/29 02:48:26;;;;;;;1.20;0.90;;;20.60;72.00;;;;;;5029131;28;20201;-42
2022/12/29 02:51:01;;;;;;;1.20;1.00;;;20.60;71.30;;;;;;5020888;28;20211;-47
2022/12/29 02:56:13;;;;;;;1.20;1.10;;;20.50;71.30;;;;;;5025649;28;20211;-42
2022/12/29 02:58:40;;;;;;;1.95;1.27;;;20.50;71.30;;;;;;5029472;28;20271;-47
2022/12/29 03:01:21;;;;;;;1.20;1.00;;;20.50;71.30;;;;;;5037253;28;20200;-45
2022/12/29 03:04:11;;;;;;;1.10;1.00;;;20.50;71.40;;;;;;5030488;28;20203;-43
2022/12/29 03:06:51;;;;;;;1.48;1.27;;;20.50;71.40;;;;;;5028050;28;20588;-42
2022/12/29 03:09:26;;;;;;;1.20;1.10;;;20.40;71.30;;;;;;5029410;28;20208;-44
2022/12/29 03:12:08;;;;;;;1.30;1.05;;;20.40;71.40;;;;;;5027085;28;20230;-44
2022/12/29 03:17:36;;;;;;;1.25;1.00;;;20.40;71.50;;;;;;5033872;28;20202;-46
2022/12/29 03:20:08;;;;;;;1.60;1.35;;;20.40;71.50;;;;;;5027558;28;20212;-43
2022/12/29 03:22:40;;;;;;;1.00;0.90;;;20.40;71.70;;;;;;5038829;28;20203;-43
2022/12/29 03:25:13;;;;;;;1.23;1.10;;;20.30;71.70;;;;;;5032133;28;20207;-48
2022/12/29 03:27:44;;;;;;;1.33;1.23;;;20.30;71.80;;;;;;5035054;28;20202;-44
2022/12/29 03:30:12;;;;;;;1.25;1.15;;;20.30;71.80;;;;;;5032471;28;20203;-47
2022/12/29 03:32:43;;;;;;;1.25;1.10;;;20.20;71.80;;;;;;5028742;28;20216;-45
2022/12/29 03:35:15;;;;;;;1.70;0.95;;;20.20;71.90;;;;;;5024059;28;20572;-42
2022/12/29 03:37:47;;;;;;;1.15;1.05;;;20.20;71.90;;;;;;5033282;28;20203;-42
2022/12/29 03:40:13;;;;;;;1.50;1.40;;;20.20;71.90;;;;;;5028800;28;20200;-46
2022/12/29 03:42:41;;;;;;;1.20;1.02;;;20.40;71.80;;;;;;5029289;28;20200;-45
2022/12/29 03:45:10;;;;;;;1.40;1.30;;;20.40;71.50;;;;;;5025886;28;20213;-44
2022/12/29 03:47:36;;;;;;;1.30;1.20;;;20.40;71.30;;;;;;5028132;28;20201;-41
2022/12/29 03:50:03;;;;;;;1.30;1.20;;;20.40;71.30;;;;;;5022475;28;20683;-46
2022/12/29 03:52:31;;;;;;;1.30;1.10;;;20.40;71.20;;;;;;5028879;28;20232;-44
2022/12/29 03:54:58;;;;;;;1.40;1.30;;;20.40;71.30;;;;;;5028028;28;20196;-44
2022/12/29 03:57:25;;;;;;;1.55;1.45;;;20.40;71.30;;;;;;5031639;28;20203;-43
2022/12/29 03:59:51;;;;;;;1.10;1.00;;;20.40;71.40;;;;;;5030486;28;20200;-43
2022/12/29 04:02:18;;;;;;;1.02;0.93;;;20.40;71.40;;;;;;5028942;28;20200;-43
2022/12/29 04:04:45;;;;;;;1.50;1.20;;;20.40;71.40;;;;;;5023927;28;20200;-45
2022/12/29 04:07:12;;;;;;;1.40;1.30;;;20.30;71.30;;;;;;5026811;28;20200;-46
2022/12/29 04:09:40;;;;;;;1.52;1.42;;;20.30;71.30;;;;;;5024295;28;20196;-41
2022/12/29 04:12:06;;;;;;;1.45;1.35;;;20.30;71.40;;;;;;5024875;28;20199;-42
2022/12/29 04:14:33;;;;;;;0.98;0.75;;;20.30;71.50;;;;;;5025189;28;20191;-49
2022/12/29 04:23:07;;;;;;;1.88;1.30;;;20.20;71.70;;;;;;5027305;28;20682;-43
2022/12/29 04:25:36;;;;;;;1.20;1.10;;;20.20;71.80;;;;;;5029690;28;20203;-46
2022/12/29 04:28:02;;;;;;;1.60;1.50;;;20.20;71.80;;;;;;5027841;28;20207;-44
2022/12/29 04:30:29;;;;;;;1.20;1.10;;;20.10;71.70;;;;;;5019636;28;20553;-42
2022/12/29 04:32:56;;;;;;;1.30;1.10;;;20.10;71.80;;;;;;5027219;28;20239;-44
2022/12/29 04:35:22;;;;;;;1.40;1.30;;;20.10;71.80;;;;;;5025196;28;20203;-44
2022/12/29 04:37:49;;;;;;;1.60;1.50;;;20.10;71.90;;;;;;5029469;28;20652;-42
2022/12/29 04:40:16;;;;;;;2.20;1.80;;;20.10;72.00;;;;;;5023091;28;20196;-45
2022/12/29 04:42:44;;;;;;;2.10;1.92;;;20.10;72.00;;;;;;5024745;28;20973;-49
2022/12/29 04:45:11;;;;;;;1.83;1.73;;;20.00;72.00;;;;;;5025223;28;20671;-43
2022/12/29 04:47:38;;;;;;;1.30;1.20;;;20.00;72.00;;;;;;5030913;28;20560;-44
2022/12/29 04:50:06;;;;;;;1.85;1.75;;;20.00;72.10;;;;;;5032355;28;20192;-45
2022/12/29 04:52:32;;;;;;;4.45;4.18;;;20.00;72.10;;;;;;5029071;28;20204;-47
2022/12/29 04:54:59;;;;;;;1.20;1.10;;;20.00;72.20;;;;;;5034263;28;20198;-43
2022/12/29 04:57:26;;;;;;;1.10;1.00;;;20.00;72.30;;;;;;5024667;28;20205;-48
2022/12/29 04:59:54;;;;;;;1.40;1.00;;;20.00;72.30;;;;;;5024067;28;20664;-47
2022/12/29 05:02:21;;;;;;;1.20;0.90;;;20.20;72.10;;;;;;5027383;28;20206;-43
2022/12/29 05:04:48;;;;;;;1.20;1.10;;;20.30;71.20;;;;;;5027319;28;20203;-48
2022/12/29 05:07:14;;;;;;;1.08;0.95;;;20.40;70.70;;;;;;5027948;28;20687;-45
2022/12/29 05:09:41;;;;;;;1.33;1.20;;;20.50;70.70;;;;;;5026637;28;20652;-45
2022/12/29 05:12:08;;;;;;;1.45;1.08;;;20.40;70.50;;;;;;5028401;28;20579;-43
2022/12/29 05:14:35;;;;;;;1.30;1.20;;;20.60;70.40;;;;;;5028973;28;20219;-42
2022/12/29 05:17:03;;;;;;;1.35;1.25;;;20.70;70.10;;;;;;5030006;28;20906;-46
2022/12/29 05:19:29;;;;;;;1.60;0.98;;;20.80;70.00;;;;;;5034294;28;20211;-45
2022/12/29 05:21:56;;;;;;;1.40;1.30;;;20.90;69.70;;;;;;5031288;28;20196;-42
2022/12/29 05:24:23;;;;;;;1.25;1.05;;;21.00;69.50;;;;;;5031027;28;20204;-49
2022/12/29 05:26:50;;;;;;;1.35;0.93;;;21.00;69.30;;;;;;5032056;28;20193;-43
2022/12/29 05:29:16;;;;;;;1.25;0.90;;;21.10;69.20;;;;;;5030167;28;20203;-42
2022/12/29 05:31:43;;;;;;;1.20;1.00;;;21.20;69.10;;;;;;5028879;28;20196;-46
2022/12/29 05:34:11;;;;;;;1.33;1.23;;;21.20;68.90;;;;;;5026310;28;20561;-42
2022/12/29 05:36:38;;;;;;;2.55;1.13;;;21.40;68.80;;;;;;5023718;28;20227;-44
2022/12/29 05:39:07;;;;;;;1.00;0.80;;;21.30;68.60;;;;;;5031148;28;20200;-44
2022/12/29 05:41:34;;;;;;;1.23;1.10;;;21.40;68.60;;;;;;5029328;28;20256;-47
2022/12/29 05:44:01;;;;;;;1.27;1.00;;;21.40;68.70;;;;;;5030669;28;20209;-47
2022/12/29 05:46:27;;;;;;;1.40;1.00;;;21.30;68.60;;;;;;5026802;28;20291;-41
2022/12/29 05:48:54;;;;;;;1.60;0.90;;;21.30;68.60;;;;;;5027396;28;20193;-42
2022/12/29 05:51:22;;;;;;;1.35;1.25;;;21.40;68.50;;;;;;5018925;28;20203;-44
2022/12/29 05:53:49;;;;;;;1.23;1.10;;;21.50;68.30;;;;;;5028080;28;20213;-47
2022/12/29 05:56:15;;;;;;;1.10;1.00;;;21.50;68.20;;;;;;5027298;28;20204;-45
2022/12/29 05:58:42;;;;;;;1.40;1.30;;;21.50;68.10;;;;;;5030631;28;20200;-42
2022/12/29 06:01:09;;;;;;;1.30;1.10;;;21.50;68.20;;;;;;5024420;28;20215;-44
2022/12/29 06:03:36;;;;;;;1.20;1.05;;;21.50;68.30;;;;;;5028998;28;20195;-44
2022/12/29 06:06:02;;;;;;;1.20;1.10;;;21.50;68.30;;;;;;5024387;28;20689;-42
2022/12/29 06:08:30;;;;;;;1.00;0.82;;;21.60;68.10;;;;;;5028256;28;20291;-44
2022/12/29 06:10:57;;;;;;;1.30;0.98;;;21.60;67.80;;;;;;5025485;28;20196;-43
2022/12/29 06:13:24;;;;;;;1.00;0.80;;;21.70;67.80;;;;;;5025973;28;20577;-44
2022/12/29 06:15:50;;;;;;;1.00;0.82;;;21.70;67.80;;;;;;5026526;28;20192;-46
2022/12/29 06:18:17;;;;;;;1.45;1.35;;;21.70;67.80;;;;;;5031991;28;20683;-47
2022/12/29 06:20:44;;;;;;;1.42;1.30;;;21.60;67.90;;;;;;5033287;28;20216;-47
2022/12/29 06:23:11;;;;;;;1.10;0.88;;;21.60;68.10;;;;;;5029970;28;20222;-41
2022/12/29 06:25:39;;;;;;;1.08;0.90;;;21.60;68.20;;;;;;5028829;28;20196;-45
2022/12/29 06:28:06;;;;;;;1.00;0.90;;;21.60;67.90;;;;;;5026326;28;20204;-45
2022/12/29 06:30:33;;;;;;;1.27;1.13;;;21.50;67.60;;;;;;5019993;28;20198;-45
2022/12/29 06:33:00;;;;;;;1.33;1.23;;;21.80;67.60;;;;;;5032935;28;20192;-46
2022/12/29 06:35:27;;;;;;;1.20;1.00;;;21.70;67.50;;;;;;5026803;28;20702;-45
2022/12/29 06:37:53;;;;;;;1.17;0.80;;;21.70;67.60;;;;;;5032073;28;20197;-44
2022/12/29 06:40:21;;;;;;;1.25;1.15;;;21.70;67.60;;;;;;5027001;28;20196;-45
2022/12/29 06:42:49;;;;;;;1.52;1.35;;;21.70;67.80;;;;;;5026540;28;20569;-43
2022/12/29 06:45:16;;;;;;;1.20;0.98;;;21.70;67.70;;;;;;5024449;28;20199;-45
2022/12/29 06:47:42;;;;;;;1.20;1.08;;;21.80;67.60;;;;;;5027438;28;22192;-41
2022/12/29 06:50:09;;;;;;;0.93;0.82;;;21.80;67.50;;;;;;5025110;28;20197;-42
2022/12/29 06:52:36;;;;;;;1.15;1.05;;;21.80;67.30;;;;;;5024461;28;20649;-44
2022/12/29 06:55:03;;;;;;;1.33;1.15;;;21.80;67.30;;;;;;5031223;28;20217;-43
2022/12/29 06:57:30;;;;;;;1.10;0.90;;;21.80;67.30;;;;;;5025836;28;20201;-44
2022/12/29 06:59:58;;;;;;;1.40;1.30;;;21.80;67.50;;;;;;5019542;28;20212;-42
2022/12/29 07:02:25;;;;;;;1.30;1.20;;;21.70;67.30;;;;;;5027161;28;20203;-46
2022/12/29 07:04:53;;;;;;;1.60;1.20;;;21.90;67.40;;;;;;5021996;28;20229;-44
2022/12/29 07:07:19;;;;;;;1.60;1.50;;;21.90;67.20;;;;;;5025267;28;20200;-47
2022/12/29 07:09:46;;;;;;;1.38;1.27;;;21.90;67.10;;;;;;5030434;28;20208;-43
2022/12/29 07:12:13;;;;;;;6.07;1.80;;;22.00;67.10;;;;;;5031338;28;20202;-44
2022/12/29 07:14:40;;;;;;;1.60;1.48;;;21.90;66.90;;;;;;5029621;28;20587;-43
2022/12/29 07:17:08;;;;;;;2.65;2.45;;;22.00;67.00;;;;;;5031303;28;20246;-46
2022/12/29 07:19:34;;;;;;;2.30;2.20;;;22.10;67.10;;;;;;5040025;28;20212;-44
2022/12/29 07:22:02;;;;;;;1.77;1.67;;;22.00;67.10;;;;;;5030899;28;20196;-43
2022/12/29 07:24:29;;;;;;;1.17;1.08;;;22.10;67.10;;;;;;5035580;28;20211;-44
2022/12/29 07:26:56;;;;;;;1.52;1.40;;;22.10;67.10;;;;;;5029465;28;20196;-41
2022/12/29 07:29:23;;;;;;;1.65;1.55;;;22.10;67.10;;;;;;5026137;28;20208;-42
2022/12/29 07:31:49;;;;;;;1.52;1.42;;;22.10;67.30;;;;;;5030890;28;20189;-40
2022/12/29 07:34:17;;;;;;;2.90;2.70;;;22.10;67.30;;;;;;5026572;28;20228;-42
2022/12/29 07:36:44;;;;;;;1.83;1.70;;;22.10;67.40;;;;;;5028952;28;20189;-44
2022/12/29 07:39:11;;;;;;;1.30;1.20;;;22.10;67.40;;;;;;5031006;28;20686;-43
2022/12/29 07:41:38;;;;;;;1.65;1.55;;;22.20;67.50;;;;;;5029576;28;20221;-42
2022/12/29 07:44:05;;;;;;;1.55;1.45;;;22.10;67.50;;;;;;5022808;28;20215;-40
2022/12/29 07:46:31;;;;;;;1.77;1.67;;;22.10;67.60;;;;;;5020350;28;20200;-42
2022/12/29 07:48:58;;;;;;;3.00;2.80;;;22.10;67.60;;;;;;5019869;28;22481;-42
2022/12/29 07:51:26;;;;;;;1.58;1.48;;;22.10;67.60;;;;;;5022541;28;20558;-42
2022/12/29 07:53:53;;;;;;;1.65;1.55;;;22.20;67.70;;;;;;5020149;28;20679;-43
2022/12/29 07:56:20;;;;;;;2.00;1.90;;;22.10;67.60;;;;;;5018821;28;20628;-43
2022/12/29 07:58:46;;;;;;;2.85;2.65;;;22.20;67.60;;;;;;5018979;28;20197;-43
2022/12/29 08:01:13;;;;;;;1.70;1.60;;;22.20;67.80;;;;;;5020741;28;20201;-43
2022/12/29 08:03:41;;;;;;;1.52;1.38;;;22.10;67.90;;;;;;5017841;28;20483;-42
2022/12/29 08:06:10;;;;;;;3.60;1.25;;;22.10;68.00;;;;;;5025018;28;20196;-42
2022/12/29 08:08:38;;;;;;;1.27;1.15;;;22.00;68.10;;;;;;5031357;28;20574;-41
2022/12/29 08:11:05;;;;;;;1.40;1.08;;;22.00;68.30;;;;;;5033182;28;20204;-42
2022/12/29 08:13:32;;;;;;;1.73;1.63;;;21.80;68.20;;;;;;5029786;28;20196;-42
2022/12/29 08:15:59;;;;;;;1.25;1.10;;;21.80;68.30;;;;;;5027881;28;20199;-41
2022/12/29 08:18:26;;;;;;;1.10;1.00;;;21.90;68.50;;;;;;5031676;28;20557;-42
2022/12/29 08:20:52;;;;;;;2.20;2.10;;;21.90;68.50;;;;;;5022197;28;20208;-43
2022/12/29 08:23:19;;;;;;;0.98;0.80;;;21.90;68.40;;;;;;5025959;28;20207;-42
2022/12/29 08:25:47;;;;;;;1.85;1.75;;;22.00;68.50;;;;;;5026735;28;20537;-43
2022/12/29 08:28:14;;;;;;;8.15;7.68;;;22.00;68.30;;;;;;5030938;28;20206;-42
2022/12/29 08:30:40;;;;;;;1.60;1.50;;;22.10;68.30;;;;;;5017573;28;20196;-47
2022/12/29 08:33:07;;;;;;;1.92;1.40;;;22.10;68.10;;;;;;5030032;28;20192;-41
2022/12/29 08:35:34;;;;;;;1.60;1.40;;;22.20;68.20;;;;;;5019021;28;20227;-41
2022/12/29 08:38:00;;;;;;;0.90;0.80;;;22.20;68.00;;;;;;5025842;28;20567;-44
2022/12/29 08:40:27;;;;;;;1.60;1.20;;;22.20;68.10;;;;;;5026439;28;20208;-43
2022/12/29 08:42:55;;;;;;;1.50;1.33;;;22.20;69.00;;;;;;5026110;28;20188;-43
2022/12/29 08:45:22;;;;;;;1.90;1.80;;;22.10;68.20;;;;;;5017362;28;20219;-42
2022/12/29 08:47:48;;;;;;;1.20;1.10;;;22.10;68.40;;;;;;5029161;28;20189;-42
2022/12/29 08:50:15;;;;;;;1.35;1.25;;;22.10;68.50;;;;;;5034561;28;20200;-47
2022/12/29 08:52:42;;;;;;;1.00;0.80;;;22.00;68.40;;;;;;5028672;28;20204;-47
2022/12/29 08:55:09;;;;;;;1.40;1.30;;;22.00;68.60;;;;;;5025447;28;20668;-44
2022/12/29 08:57:36;;;;;;;4.25;4.05;;;22.00;68.70;;;;;;5026547;28;20200;-44
2022/12/29 09:00:06;;;;;;;1.33;0.93;;;21.90;68.70;;;;;;5027852;28;20197;-45
2022/12/29 09:02:32;;;;;;;1.83;1.10;;;21.90;68.80;;;;;;5029774;28;20205;-43
2022/12/29 09:05:00;;;;;;;1.00;0.80;;;21.90;68.80;;;;;;5024788;28;20193;-45
2022/12/29 09:07:26;;;;;;;1.10;0.90;;;21.80;68.80;;;;;;5023441;28;20212;-43
2022/12/29 09:09:53;;;;;;;1.35;1.20;;;21.70;68.70;;;;;;5019011;28;20200;-44
2022/12/29 09:12:20;;;;;;;1.65;1.02;;;21.80;68.50;;;;;;5026438;28;20200;-43
2022/12/29 09:14:47;;;;;;;2.08;1.08;;;21.90;68.40;;;;;;5028485;28;20710;-43
2022/12/29 09:19:59;;;;;;;1.10;1.00;;;22.00;67.90;;;;;;5026998;28;20346;-41
2022/12/29 09:22:26;;;;;;;1.47;1.13;;;22.10;67.60;;;;;;5029867;28;21711;-45
2022/12/29 09:24:52;;;;;;;1.10;0.75;;;22.20;67.40;;;;;;5030573;28;20469;-42
2022/12/29 09:27:19;;;;;;;0.95;0.85;;;22.20;67.10;;;;;;5031186;28;20208;-42
2022/12/29 09:29:46;;;;;;;1.10;0.85;;;22.30;67.00;;;;;;5028937;28;20196;-44
2022/12/29 09:32:12;;;;;;;1.03;0.93;;;22.30;66.90;;;;;;5030075;28;20202;-42
2022/12/29 09:34:40;;;;;;;1.30;1.20;;;22.30;66.70;;;;;;5014290;28;20478;-44
2022/12/29 09:37:07;;;;;;;1.42;1.33;;;22.30;66.50;;;;;;5024787;28;20209;-46
2022/12/29 09:39:34;;;;;;;1.38;1.20;;;22.40;66.40;;;;;;5028448;28;20211;-44
2022/12/29 09:42:07;;;;;;;2.05;1.30;;;22.40;66.30;;;;;;5027714;28;20207;-42
2022/12/29 09:44:48;;;;;;;2.27;0.83;;;22.40;66.20;;;;;;5027605;28;20542;-42
2022/12/29 09:47:18;;;;;;;1.43;1.33;;;22.30;66.00;;;;;;5021669;28;20462;-42
2022/12/29 09:49:50;;;;;;;1.38;1.13;;;22.40;66.10;;;;;;5027317;28;20477;-42
2022/12/29 09:52:22;;;;;;;0.93;0.70;;;22.40;66.10;;;;;;5035157;28;20203;-42
2022/12/29 09:54:54;;;;;;;0.93;0.83;;;22.40;66.10;;;;;;5027507;28;20627;-40
2022/12/29 09:57:25;;;;;;;1.63;1.10;;;22.30;65.90;;;;;;5028298;28;20465;-42
2022/12/29 09:59:56;;;;;;;2.08;1.60;;;22.30;66.20;;;;;;5029161;28;20455;-44
2022/12/29 10:02:35;;;;;;;1.23;0.90;;;22.30;66.30;;;;;;5028631;28;20201;-43
2022/12/29 10:05:04;;;;;;;1.77;1.00;;;22.20;66.40;;;;;;5024698;28;20197;-41
2022/12/29 10:07:46;;;;;;;6.40;1.40;;;22.20;66.60;;;;;;5027236;28;20463;-45
2022/12/29 10:10:26;;;;;;;0.88;0.70;;;22.20;66.80;;;;;;5033675;28;20460;-42
2022/12/29 10:13:01;;;;;;;1.95;1.25;;;22.30;67.00;;;;;;5040355;28;20549;-45
2022/12/29 10:15:39;;;;;;;1.95;1.30;;;22.30;66.90;;;;;;5024452;28;20255;-45
2022/12/29 10:18:24;;;;;;;7.25;1.27;;;22.30;66.90;;;;;;5032135;28;20675;-44
2022/12/29 10:20:56;;;;;;;1.10;1.00;;;22.30;66.90;;;;;;5030353;28;20225;-46
2022/12/29 10:23:29;;;;;;;5.00;2.47;;;22.30;66.90;;;;;;5031504;28;20469;-46
2022/12/29 10:25:57;;;;;;;1.55;0.88;;;22.30;66.90;;;;;;5031042;28;20459;-42
2022/12/29 10:28:29;;;;;;;1.48;0.85;;;22.30;66.90;;;;;;5030502;28;20229;-42
2022/12/29 10:30:59;;;;;;;1.67;1.10;;;22.30;66.90;;;;;;5032003;28;20200;-43
2022/12/29 10:33:32;;;;;;;2.13;0.80;;;22.30;67.00;;;;;;5032513;28;20657;-43
2022/12/29 10:36:11;;;;;;;2.80;1.60;;;22.30;67.00;;;;;;5022966;28;20879;-43
2022/12/29 10:38:46;;;;;;;1.53;1.07;;;22.30;67.00;;;;;;5031136;28;20459;-46
2022/12/29 10:41:17;;;;;;;1.48;1.02;;;22.30;67.00;;;;;;5028367;28;20459;-42
2022/12/29 10:43:47;;;;;;;1.15;1.05;;;22.30;67.00;;;;;;5034302;28;20197;-44
2022/12/29 10:46:16;;;;;;;1.40;1.02;;;22.30;67.00;;;;;;5031852;28;20594;-46
2022/12/29 10:48:45;;;;;;;1.50;1.20;;;22.30;67.10;;;;;;5032582;28;20201;-44
2022/12/29 10:51:21;;;;;;;1.10;1.00;;;22.30;67.10;;;;;;5026759;28;20593;-43
2022/12/29 10:53:52;;;;;;;1.23;1.02;;;22.30;67.00;;;;;;5022373;28;20561;-44
2022/12/29 10:56:32;;;;;;;1.20;0.90;;;22.30;67.10;;;;;;5029370;28;20220;-46
2022/12/29 10:59:07;;;;;;;2.45;1.75;;;22.30;66.90;;;;;;5025077;28;20198;-44
2022/12/29 11:01:43;;;;;;;1.25;1.15;;;22.40;67.20;;;;;;5027377;28;20568;-46
2022/12/29 11:04:26;;;;;;;1.10;0.90;;;22.30;67.00;;;;;;5031882;28;20538;-43
2022/12/29 11:06:54;;;;;;;2.10;0.90;;;22.40;67.30;;;;;;5029517;28;20463;-44
2022/12/29 11:09:28;;;;;;;1.95;1.85;;;22.30;67.40;;;;;;5029952;28;22164;-44
2022/12/29 11:11:54;;;;;;;1.15;1.05;;;22.30;67.50;;;;;;5026104;28;20199;-43
2022/12/29 11:14:27;;;;;;;1.10;1.00;;;22.30;67.30;;;;;;5026157;28;20205;-43
2022/12/29 11:16:58;;;;;;;1.33;0.88;;;22.30;67.30;;;;;;5026296;28;20839;-43
2022/12/29 11:19:27;;;;;;;3.22;2.00;;;22.30;67.30;;;;;;5029521;28;20812;-46
2022/12/29 11:21:56;;;;;;;4.63;1.95;;;22.30;64.50;;;;;;5024216;28;20194;-44
2022/12/29 11:24:24;;;;;;;1.67;1.30;;;22.10;63.60;;;;;;5027237;28;20208;-45
2022/12/29 11:26:57;;;;;;;5.03;2.10;;;22.10;63.00;;;;;;5028085;28;20207;-46
2022/12/29 11:29:29;;;;;;;2.25;1.00;;;21.90;63.10;;;;;;5034070;28;20192;-47
2022/12/29 11:31:58;;;;;;;3.75;2.55;;;21.90;61.70;;;;;;5024560;28;20294;-45
2022/12/29 11:34:27;;;;;;;3.55;2.88;;;21.80;59.60;;;;;;5027434;28;20196;-48
2022/12/29 11:37:01;;;;;;;3.53;2.28;;;21.60;60.10;;;;;;5020335;28;20530;-45
2022/12/29 11:39:35;;;;;;;3.72;2.05;;;21.60;60.30;;;;;;5020335;28;20204;-44
2022/12/29 11:42:04;;;;;;;4.20;2.10;;;21.50;59.70;;;;;;5033182;28;20199;-46
2022/12/29 11:44:37;;;;;;;2.35;1.50;;;21.40;61.90;;;;;;5035222;28;20203;-47
2022/12/29 11:47:04;;;;;;;2.00;1.50;;;21.40;62.60;;;;;;5025217;28;20668;-46
2022/12/29 11:49:31;;;;;;;3.78;2.10;;;21.50;63.10;;;;;;5026330;28;20201;-44
2022/12/29 11:52:00;;;;;;;4.15;2.03;;;21.50;63.30;;;;;;5027727;28;20200;-45
2022/12/29 11:54:30;;;;;;;2.45;1.42;;;21.50;63.80;;;;;;5035669;28;20196;-45
2022/12/29 11:56:59;;;;;;;1.85;1.60;;;21.50;63.90;;;;;;5029169;28;20660;-44
2022/12/29 11:59:38;;;;;;;1.27;1.05;;;21.40;64.00;;;;;;5026242;28;20205;-45
2022/12/29 12:02:32;;;;;;;3.45;1.65;;;21.40;64.30;;;;;;5027422;28;20197;-45
2022/12/29 12:05:06;;;;;;;2.28;1.55;;;21.40;64.60;;;;;;5028074;28;20208;-49
2022/12/29 12:07:41;;;;;;;2.17;1.40;;;21.40;64.60;;;;;;5032819;28;20203;-46
2022/12/29 12:10:15;;;;;;;2.25;2.05;;;21.40;64.90;;;;;;5029885;28;20196;-51
2022/12/29 12:12:48;;;;;;;3.45;1.85;;;21.50;65.10;;;;;;5034288;28;20202;-50
2022/12/29 12:15:20;;;;;;;3.38;2.40;;;21.60;65.20;;;;;;5026465;28;20743;-47
2022/12/29 12:17:52;;;;;;;5.32;1.85;;;21.70;65.20;;;;;;5033467;28;20216;-46
2022/12/29 12:20:22;;;;;;;6.40;1.80;;;21.90;65.40;;;;;;5028399;28;20221;-50
2022/12/29 12:22:59;;;;;;;4.72;1.65;;;22.10;66.00;;;;;;5030200;28;20200;-46
2022/12/29 12:25:31;;;;;;;2.45;2.25;;;22.10;68.00;;;;;;5029974;28;20193;-47
2022/12/29 12:28:01;;;;;;;3.67;2.38;;;22.20;68.40;;;;;;5023850;28;20195;-50
2022/12/29 12:30:34;;;;;;;1.92;1.20;;;22.20;69.80;;;;;;5026643;28;20208;-49
2022/12/29 12:33:06;;;;;;;2.20;1.40;;;22.20;69.30;;;;;;5035107;28;20198;-48
2022/12/29 12:35:43;;;;;;;4.38;1.55;;;22.10;69.60;;;;;;5029711;28;20624;-50
2022/12/29 12:38:24;;;;;;;2.00;1.23;;;22.10;69.70;;;;;;5030532;28;20199;-50
2022/12/29 12:41:01;;;;;;;2.85;1.40;;;22.10;69.90;;;;;;5027981;28;20201;-45
2022/12/29 12:43:48;;;;;;;4.80;1.38;;;22.10;70.40;;;;;;5028824;28;20203;-47
2022/12/29 12:46:35;;;;;;;5.15;1.58;;;21.90;70.00;;;;;;5029443;28;20204;-48
2022/12/29 12:49:18;;;;;;;3.05;1.30;;;21.90;70.10;;;;;;5033515;28;20266;-44
2022/12/29 12:51:53;;;;;;;7.13;1.60;;;21.80;70.50;;;;;;5017625;28;20200;-46
2022/12/29 12:54:36;;;;;;;8.48;2.03;;;21.70;70.70;;;;;;5018329;28;20609;-46
2022/12/29 12:57:15;;;;;;;3.80;2.22;;;21.70;70.90;;;;;;5019465;28;20225;-47
2022/12/29 12:59:58;;;;;;;2.65;1.92;;;21.80;71.00;;;;;;5028333;28;20660;-49
2022/12/29 13:02:37;;;;;;;5.80;2.08;;;21.90;71.30;;;;;;5028976;28;20196;-49
2022/12/29 13:05:18;;;;;;;2.55;1.52;;;22.10;71.10;;;;;;5022740;28;20195;-49
2022/12/29 13:07:56;;;;;;;5.03;2.75;;;22.20;71.10;;;;;;5027538;28;20671;-49
2022/12/29 13:10:33;;;;;;;1.60;1.30;;;22.30;70.80;;;;;;5025895;28;20207;-48
2022/12/29 13:13:24;;;;;;;3.60;2.15;;;22.40;70.60;;;;;;5034804;28;20203;-49
2022/12/29 13:15:59;;;;;;;2.72;2.47;;;22.50;70.40;;;;;;5027824;28;20244;-53
2022/12/29 13:19:19;;;;;;;2.90;1.50;;;22.50;70.40;;;;;;5072556;28;20367;-53
2022/12/29 13:22:05;;;;;;;2.10;1.40;;;22.50;70.10;;;;;;5061530;28;20387;-51
2022/12/29 13:24:41;;;;;;;2.55;1.23;;;22.50;70.40;;;;;;5067729;28;20204;-50
2022/12/29 13:27:17;;;;;;;8.27;3.65;;;22.50;70.50;;;;;;5061621;28;20199;-51
2022/12/29 13:29:49;;;;;;;6.47;2.10;;;22.50;70.60;;;;;;5058895;28;20199;-51
2022/12/29 13:32:27;;;;;;;3.13;2.03;;;22.50;70.50;;;;;;5066808;28;20210;-47
2022/12/29 13:35:07;;;;;;;4.22;2.83;;;22.50;70.70;;;;;;5056020;28;20572;-48
2022/12/29 13:37:41;;;;;;;5.30;2.47;;;22.50;70.70;;;;;;5066836;28;20215;-46
2022/12/29 13:40:16;;;;;;;4.22;2.20;;;22.50;70.70;;;;;;5060975;28;20202;-50
2022/12/29 13:42:43;;;;;;;2.83;1.42;;;22.50;70.60;;;;;;5062009;28;20206;-51
2022/12/29 13:45:16;;;;;;;3.75;1.35;;;22.50;70.60;;;;;;5063229;28;20204;-51
2022/12/29 13:47:49;;;;;;;3.35;1.92;;;22.50;70.60;;;;;;5063812;28;20196;-51